Time;durP1;ratioP1;P1;durP2;ratioP2;P2;SDS_P1;SDS_P2;PMS_P1;PMS_P2;Temp;Humidity;BMP_temperature;BMP_pressure;BME280_temperature;BME280_humidity;BME280_pressure;Samples;Min_cycle;Max_cycle;Signal;HPM_P1;HPM_P2
2023/10/26 00:00:27;;;;;;;23.00;14.45;;;;;;;9.30;100.00;99475.25;5097655;28;20468;-96
2023/10/26 00:02:53;;;;;;;20.67;13.68;;;;;;;9.30;100.00;99475.25;5131092;27;20036;-96
2023/10/26 00:05:28;;;;;;;21.90;14.17;;;;;;;9.28;100.00;99483.59;5113148;28;20039;-96
2023/10/26 00:07:56;;;;;;;24.80;13.93;;;;;;;9.30;100.00;99491.47;5113590;28;20471;-96
2023/10/26 00:10:24;;;;;;;22.65;14.48;;;;;;;9.30;100.00;99497.72;5113638;28;20038;-96
2023/10/26 00:12:53;;;;;;;24.50;14.90;;;;;;;9.26;100.00;99499.28;5096498;28;20051;-96
2023/10/26 00:15:21;;;;;;;21.35;13.38;;;;;;;9.25;100.00;99492.19;5113374;28;20034;-96
2023/10/26 00:17:47;;;;;;;22.50;14.57;;;;;;;9.27;100.00;99500.09;5113404;28;20024;-96
2023/10/26 00:20:12;;;;;;;24.95;13.70;;;;;;;9.30;100.00;99499.59;5113144;28;20089;-96
2023/10/26 00:22:43;;;;;;;23.00;14.27;;;;;;;9.29;100.00;99501.50;5113663;28;20042;-96
2023/10/26 00:25:14;;;;;;;21.50;13.45;;;;;;;9.29;100.00;99501.50;5113006;28;20038;-96
2023/10/26 00:27:47;;;;;;;21.02;13.18;;;;;;;9.32;100.00;99508.31;5113208;28;20084;-96
2023/10/26 00:30:35;;;;;;;20.10;13.13;;;;;;;9.30;100.00;99503.16;5113851;28;20063;-96
2023/10/26 00:33:01;;;;;;;23.13;13.88;;;;;;;9.33;100.00;99509.97;5079398;28;20419;-96
2023/10/26 00:35:35;;;;;;;22.98;14.13;;;;;;;9.31;100.00;99509.38;5105063;28;20091;-96
2023/10/26 00:38:03;;;;;;;20.48;13.15;;;;;;;9.30;100.00;99513.97;5090358;28;20035;-96
2023/10/26 00:40:31;;;;;;;19.73;13.07;;;;;;;9.30;100.00;99511.28;5106607;28;20176;-96
2023/10/26 00:43:08;;;;;;;19.05;13.07;;;;;;;9.27;100.00;99519.03;5099336;28;20130;-96
2023/10/26 00:45:35;;;;;;;19.55;13.00;;;;;;;9.26;100.00;99520.09;5113145;28;20027;-96
2023/10/26 00:48:01;;;;;;;20.10;12.98;;;;;;;9.26;100.00;99529.03;5113459;28;20428;-96
2023/10/26 00:50:30;;;;;;;19.90;13.25;;;;;;;9.26;100.00;99534.44;5112652;28;20016;-96
2023/10/26 00:53:04;;;;;;;21.42;12.07;;;;;;;9.26;100.00;99530.94;5114365;28;20028;-96
2023/10/26 00:55:29;;;;;;;20.10;12.50;;;;;;;9.25;100.00;99527.38;5116961;28;20032;-96
2023/10/26 00:57:55;;;;;;;18.63;11.87;;;;;;;9.26;100.00;99539.06;5116923;28;20027;-96
2023/10/26 01:00:30;;;;;;;16.95;11.52;;;;;;;9.24;100.00;99533.88;5116878;28;20027;-96
2023/10/26 01:02:59;;;;;;;19.27;11.50;;;;;;;9.25;100.00;99532.00;5116863;28;20024;-96
2023/10/26 01:05:27;;;;;;;18.45;11.52;;;;;;;9.25;100.00;99534.69;5116695;28;20024;-96
2023/10/26 01:07:53;;;;;;;16.88;11.50;;;;;;;9.26;100.00;99539.88;5116644;28;20050;-96
2023/10/26 01:10:21;;;;;;;16.23;11.05;;;;;;;9.27;100.00;99541.53;5102686;28;20459;-96
2023/10/26 01:12:54;;;;;;;16.58;11.15;;;;;;;9.25;100.00;99538.22;5117500;27;20039;-96
2023/10/26 01:15:23;;;;;;;18.60;11.38;;;;;;;9.27;100.00;99536.09;5116654;28;20047;-96
2023/10/26 01:17:51;;;;;;;17.83;11.15;;;;;;;9.25;100.00;99548.22;5116732;28;20031;-96
2023/10/26 01:20:22;;;;;;;16.17;11.30;;;;;;;9.24;100.00;99541.16;5116628;28;20106;-96
2023/10/26 01:22:48;;;;;;;16.27;11.27;;;;;;;9.20;100.00;99537.31;5116608;28;20038;-96
2023/10/26 01:25:41;;;;;;;;;;;;;;;;;;;;;
2023/10/26 01:28:23;;;;;;;17.98;11.20;;;;;;;9.13;100.00;99537.44;5117277;28;20024;-96
2023/10/26 01:30:58;;;;;;;;;;;;;;;;;;;;;
2023/10/26 01:33:24;;;;;;;19.60;11.70;;;;;;;8.99;100.00;99534.16;5117567;28;20038;-96
2023/10/26 01:35:55;;;;;;;16.73;10.85;;;;;;;9.01;100.00;99539.34;5116343;28;20527;-96
2023/10/26 01:38:36;;;;;;;;;;;;;;;;;;;;;
2023/10/26 01:41:11;;;;;;;18.88;11.82;;;;;;;8.91;100.00;99538.03;5116138;28;20031;-96
2023/10/26 01:43:42;;;;;;;16.98;10.88;;;;;;;8.83;100.00;99543.81;5116355;28;20100;-96
2023/10/26 01:46:08;;;;;;;16.05;10.95;;;;;;;8.74;100.00;99537.09;5115552;28;20032;-96
2023/10/26 01:48:35;;;;;;;17.73;11.83;;;;;;;8.71;100.00;99542.97;5098916;28;20039;-96
2023/10/26 01:51:04;;;;;;;20.08;11.77;;;;;;;8.71;100.00;99545.69;5115999;28;20073;-96
2023/10/26 01:53:29;;;;;;;18.25;11.73;;;;;;;8.71;100.00;99538.41;5115874;28;20116;-96
2023/10/26 01:55:55;;;;;;;19.53;11.90;;;;;;;8.75;100.00;99542.28;5116756;28;20095;-96
2023/10/26 01:58:20;;;;;;;23.08;12.07;;;;;;;8.75;100.00;99545.00;5116027;28;20036;-96
2023/10/26 02:00:46;;;;;;;25.07;12.83;;;;;;;8.74;100.00;99556.88;5115524;28;20031;-96
2023/10/26 02:03:18;;;;;;;22.27;13.37;;;;;;;8.76;100.00;99545.81;5115805;28;20466;-96
2023/10/26 02:05:46;;;;;;;18.98;11.93;;;;;;;8.76;100.00;99541.22;5103019;28;20288;-96
2023/10/26 02:08:12;;;;;;;21.92;12.93;;;;;;;8.74;100.00;99542.50;5115561;28;20064;-96
2023/10/26 02:10:42;;;;;;;20.27;12.53;;;;;;;8.71;100.00;99534.84;5108229;28;20020;-96
2023/10/26 02:13:20;;;;;;;20.02;12.88;;;;;;;8.64;100.00;99534.19;5093539;27;20052;-96
2023/10/26 02:15:47;;;;;;;23.20;12.63;;;;;;;8.55;100.00;99529.09;5115678;28;20039;-96
2023/10/26 02:18:12;;;;;;;19.15;12.30;;;;;;;8.52;100.00;99531.44;5115258;28;20023;-96
2023/10/26 02:20:50;;;;;;;21.27;12.70;;;;;;;8.48;100.00;99533.00;5115800;28;20036;-96
2023/10/26 02:23:29;;;;;;;;;;;;;;;;;;;;;
2023/10/26 02:25:57;;;;;;;20.63;11.63;;;;;;;8.34;100.00;99530.47;5116718;28;20028;-96
2023/10/26 02:28:23;;;;;;;21.02;12.20;;;;;;;8.31;100.00;99533.66;5133019;27;20024;-96
2023/10/26 02:31:00;;;;;;;23.27;12.90;;;;;;;8.27;100.00;99529.75;5115289;28;20027;-96
2023/10/26 02:33:31;;;;;;;23.48;12.70;;;;;;;8.22;100.00;99518.81;5115283;28;20016;-96
2023/10/26 02:36:06;;;;;;;19.02;12.07;;;;;;;8.17;100.00;99519.50;5115049;28;20036;-96
2023/10/26 02:38:40;;;;;;;21.25;12.48;;;;;;;8.13;100.00;99521.03;5115235;28;20058;-96
2023/10/26 02:41:08;;;;;;;21.60;12.20;;;;;;;8.05;100.00;99522.19;5113764;28;20028;-96
2023/10/26 02:43:34;;;;;;;21.08;11.65;;;;;;;8.00;100.00;99524.78;5132232;27;20036;-96
2023/10/26 02:46:09;;;;;;;24.70;12.25;;;;;;;7.94;100.00;99527.56;5114942;28;20035;-95
2023/10/26 02:48:39;;;;;;;22.02;12.50;;;;;;;7.88;100.00;99530.13;5115001;28;20023;-96
2023/10/26 02:51:17;;;;;;;23.02;11.85;;;;;;;7.83;100.00;99527.28;5101291;28;20031;-96
2023/10/26 02:53:42;;;;;;;22.50;12.43;;;;;;;7.79;100.00;99527.97;5131765;27;20032;-96
2023/10/26 02:56:13;;;;;;;26.90;11.83;;;;;;;7.72;100.00;99526.19;5114770;28;20024;-96
2023/10/26 02:58:50;;;;;;;25.77;13.30;;;;;;;7.68;100.00;99530.41;5114936;28;20292;-95
2023/10/26 03:01:21;;;;;;;30.75;13.70;;;;;;;7.65;100.00;99517.38;5114665;28;20371;-96
2023/10/26 03:03:46;;;;;;;24.67;12.82;;;;;;;7.63;100.00;99518.63;5081147;28;20029;-96
2023/10/26 03:09:16;;;;;;;25.27;12.80;;;;;;;7.54;100.00;99523.53;5108500;28;20468;-96
2023/10/26 03:11:41;;;;;;;29.98;13.20;;;;;;;7.50;100.00;99523.16;5110353;28;20027;-94
2023/10/26 03:14:09;;;;;;;27.90;13.00;;;;;;;7.44;100.00;99524.09;5131286;27;20054;-94
2023/10/26 03:16:38;;;;;;;28.08;12.98;;;;;;;7.46;100.00;99534.66;5095959;28;20031;-94
2023/10/26 03:19:04;;;;;;;26.80;13.27;;;;;;;7.42;100.00;99531.56;5114179;28;20498;-94
2023/10/26 03:21:30;;;;;;;29.27;12.60;;;;;;;7.37;100.00;99536.84;5100706;28;20031;-94
2023/10/26 03:23:58;;;;;;;28.38;12.68;;;;;;;7.34;100.00;99534.59;5131788;27;20027;-94
2023/10/26 03:26:24;;;;;;;28.70;14.15;;;;;;;7.32;100.00;99534.81;5093944;28;20083;-95
2023/10/26 03:29:02;;;;;;;29.30;14.37;;;;;;;7.29;100.00;99534.44;5100502;28;20038;-94
2023/10/26 03:31:45;;;;;;;36.67;14.70;;;;;;;7.24;100.00;99532.41;5112917;28;20570;-93
2023/10/26 03:34:16;;;;;;;26.48;13.23;;;;;;;7.20;100.00;99523.13;5097136;28;20114;-94
2023/10/26 03:36:43;;;;;;;27.73;13.30;;;;;;;7.17;100.00;99527.09;5097871;28;20379;-94
2023/10/26 03:39:12;;;;;;;30.45;13.43;;;;;;;7.16;100.00;99513.81;5113972;28;20032;-94
2023/10/26 03:41:42;;;;;;;32.63;13.48;;;;;;;7.15;100.00;99515.69;5113987;28;20027;-94
2023/10/26 03:44:13;;;;;;;31.27;13.90;;;;;;;7.17;100.00;99513.59;5097077;28;20031;-94
2023/10/26 03:46:46;;;;;;;30.27;13.63;;;;;;;7.22;100.00;99517.50;5113924;28;20130;-95
2023/10/26 03:49:15;;;;;;;30.17;13.90;;;;;;;7.26;100.00;99524.91;5113412;28;20050;-94
2023/10/26 03:51:40;;;;;;;34.78;15.30;;;;;;;7.31;100.00;99514.28;5113761;28;20051;-95
2023/10/26 03:54:09;;;;;;;64.30;16.63;;;;;;;7.38;100.00;99508.78;5096675;28;20088;-95
2023/10/26 03:56:45;;;;;;;93.82;16.42;;;;;;;7.42;100.00;99496.47;5104722;28;20020;-95
2023/10/26 03:59:11;;;;;;;115.95;17.77;;;;;;;7.45;100.00;99495.22;5096948;28;20028;-95
2023/10/26 04:01:39;;;;;;;134.48;18.05;;;;;;;7.46;100.00;99500.38;5112811;28;20074;-96
2023/10/26 04:04:07;;;;;;;200.18;19.40;;;;;;;7.49;100.00;99491.81;5113832;28;20023;-95
2023/10/26 04:06:36;;;;;;;157.35;18.45;;;;;;;7.51;100.00;99491.59;5113949;28;20053;-95
2023/10/26 04:09:01;;;;;;;181.32;18.88;;;;;;;7.52;100.00;99485.97;5112251;28;20032;-95
2023/10/26 04:11:32;;;;;;;87.55;16.15;;;;;;;7.59;100.00;99493.16;5113636;28;20138;-94
2023/10/26 04:13:59;;;;;;;282.48;19.63;;;;;;;7.58;100.00;99486.94;5083650;28;20047;-93
2023/10/26 04:16:30;;;;;;;159.50;18.10;;;;;;;7.60;100.00;99494.81;5113305;28;20034;-94
2023/10/26 04:19:00;;;;;;;189.00;19.02;;;;;;;7.60;100.00;99489.41;5113772;28;20020;-94
2023/10/26 04:21:28;;;;;;;152.88;17.35;;;;;;;7.59;100.00;99491.28;5113559;28;20028;-94
2023/10/26 04:23:59;;;;;;;181.55;16.40;;;;;;;7.56;100.00;99491.75;5113340;28;20027;-95
2023/10/26 04:26:32;;;;;;;113.93;15.75;;;;;;;7.54;100.00;99491.13;5097023;28;20127;-94
2023/10/26 04:29:07;;;;;;;211.53;16.37;;;;;;;7.50;100.00;99498.88;5117482;28;20035;-95
2023/10/26 04:31:35;;;;;;;164.70;17.35;;;;;;;7.45;100.00;99498.72;5116082;28;20459;-94
2023/10/26 04:34:01;;;;;;;93.03;15.25;;;;;;;7.42;100.00;99496.47;5100717;28;20081;-94
2023/10/26 04:36:29;;;;;;;128.40;16.10;;;;;;;7.45;100.00;99506.81;5117169;28;20023;-94
2023/10/26 04:38:54;;;;;;;168.32;14.82;;;;;;;7.40;100.00;99493.19;5100011;28;20031;-95
2023/10/26 04:41:23;;;;;;;146.43;14.77;;;;;;;7.34;100.00;99505.72;5103875;28;20124;-95
2023/10/26 04:43:48;;;;;;;113.40;13.95;;;;;;;7.30;100.00;99498.31;5117405;28;20110;-95
2023/10/26 04:46:14;;;;;;;82.60;13.38;;;;;;;7.32;100.00;99502.44;5110873;28;20099;-94
2023/10/26 04:48:49;;;;;;;87.80;13.73;;;;;;;7.33;100.00;99495.16;5110217;28;20482;-95
2023/10/26 04:51:15;;;;;;;113.60;13.57;;;;;;;7.30;100.00;99503.72;5117736;28;20020;-95
2023/10/26 04:53:56;;;;;;;;;;;;;;;;;;;;;
2023/10/26 04:56:25;;;;;;;158.70;13.85;;;;;;;7.20;100.00;99491.59;5118559;28;20027;-95
2023/10/26 04:59:08;;;;;;;182.57;13.57;;;;;;;7.14;100.00;99500.56;5116919;28;20019;-95
2023/10/26 05:01:46;;;;;;;155.77;13.00;;;;;;;7.10;100.00;99498.53;5086680;28;20078;-94
2023/10/26 05:04:13;;;;;;;140.85;12.43;;;;;;;7.02;100.00;99486.19;5104721;28;20035;-94
2023/10/26 05:06:46;;;;;;;150.63;13.13;;;;;;;7.00;100.00;99491.81;5116502;28;20027;-93
2023/10/26 05:09:15;;;;;;;123.05;12.43;;;;;;;6.99;100.00;99500.13;5100583;28;20126;-96
2023/10/26 05:11:51;;;;;;;109.13;12.05;;;;;;;6.96;100.00;99489.78;5114696;28;20691;-96
2023/10/26 05:14:32;;;;;;;127.55;12.95;;;;;;;6.97;100.00;99486.06;5128583;27;20060;-96
2023/10/26 05:17:05;;;;;;;136.38;11.65;;;;;;;6.99;100.00;99479.38;5096786;28;20036;-96
2023/10/26 05:19:32;;;;;;;92.70;11.73;;;;;;;7.07;100.00;99483.66;5109740;28;20066;-95
2023/10/26 05:21:58;;;;;;;113.05;11.80;;;;;;;7.10;100.00;99483.22;5116588;28;20035;-96
2023/10/26 05:24:26;;;;;;;213.38;14.55;;;;;;;7.11;100.00;99481.31;5116833;28;20032;-95
2023/10/26 05:26:51;;;;;;;241.57;15.40;;;;;;;7.13;100.00;99485.44;5116485;28;20088;-96
2023/10/26 05:29:19;;;;;;;248.27;16.08;;;;;;;7.10;100.00;99480.50;5133604;27;20024;-95
2023/10/26 05:32:32;;;;;;;248.45;15.55;;;;;;;7.13;100.00;99474.66;5117115;28;20027;-96
2023/10/26 05:35:06;;;;;;;232.77;15.35;;;;;;;7.15;100.00;99466.34;5116562;28;20073;-96
2023/10/26 05:37:55;;;;;;;198.70;14.05;;;;;;;7.08;100.00;99471.81;5100007;28;20044;-96
2023/10/26 05:40:41;;;;;;;185.38;13.95;;;;;;;7.06;100.00;99473.91;5096927;28;20032;-96
2023/10/26 05:44:00;;;;;;;;;;;;;;;;;;;;;
2023/10/26 05:49:34;;;;;;;148.07;12.20;;;;;;;6.81;100.00;99474.00;5110546;28;20368;-96
2023/10/26 05:52:03;;;;;;;122.65;11.20;;;;;;;6.74;100.00;99473.25;5116444;28;20059;-96
2023/10/26 05:54:31;;;;;;;119.18;12.70;;;;;;;6.71;100.00;99485.28;5098747;28;20039;-93
2023/10/26 05:56:56;;;;;;;131.90;12.10;;;;;;;6.71;100.00;99471.00;5094300;28;20035;-95
2023/10/26 05:59:24;;;;;;;155.60;13.47;;;;;;;6.73;100.00;99466.19;5116676;28;20428;-96
2023/10/26 06:01:52;;;;;;;140.77;12.55;;;;;;;6.71;100.00;99461.03;5098452;28;20063;-96
2023/10/26 06:04:20;;;;;;;110.93;13.60;;;;;;;6.72;100.00;99456.44;5115850;28;20031;-95
2023/10/26 06:06:54;;;;;;;122.10;13.90;;;;;;;6.77;100.00;99468.22;5115161;28;20142;-95
2023/10/26 06:09:27;;;;;;;131.73;13.32;;;;;;;6.84;100.00;99470.84;5115453;28;20041;-95
2023/10/26 06:11:55;;;;;;;147.60;13.48;;;;;;;6.89;100.00;99473.69;5116593;28;20099;-94
2023/10/26 06:14:27;;;;;;;138.88;13.82;;;;;;;6.93;100.00;99465.97;5115384;28;20050;-95
2023/10/26 06:17:00;;;;;;;150.18;14.82;;;;;;;6.96;100.00;99462.84;5116492;28;20053;-95
2023/10/26 06:19:31;;;;;;;169.70;14.33;;;;;;;7.02;100.00;99467.31;5104906;28;20024;-96
2023/10/26 06:22:00;;;;;;;138.48;14.43;;;;;;;7.09;100.00;99469.94;5103791;28;20459;-96
2023/10/26 06:24:34;;;;;;;109.72;13.75;;;;;;;7.15;100.00;99463.63;5115577;28;20019;-96
2023/10/26 06:27:02;;;;;;;201.60;15.85;;;;;;;7.22;100.00;99461.69;5116025;28;20028;-96
2023/10/26 06:29:31;;;;;;;217.70;16.73;;;;;;;7.18;100.00;99463.19;5113108;28;20031;-96
2023/10/26 06:31:59;;;;;;;167.47;15.47;;;;;;;7.22;100.00;99460.84;5108228;28;20060;-95
2023/10/26 06:34:27;;;;;;;146.52;16.27;;;;;;;7.27;100.00;99459.13;5115256;28;20443;-95
2023/10/26 06:37:01;;;;;;;196.52;16.05;;;;;;;7.30;100.00;99450.56;5115857;28;20110;-95
2023/10/26 06:39:32;;;;;;;112.07;15.90;;;;;;;7.38;100.00;99469.16;5115045;28;20031;-96
2023/10/26 06:42:02;;;;;;;178.80;15.25;;;;;;;7.37;100.00;99470.19;5099011;28;20039;-94
2023/10/26 06:44:40;;;;;;;155.17;15.37;;;;;;;7.32;100.00;99469.22;5098527;28;20043;-94
2023/10/26 06:47:09;;;;;;;116.97;14.63;;;;;;;7.31;100.00;99467.59;5099608;28;20049;-95
2023/10/26 06:49:39;;;;;;;95.30;14.38;;;;;;;7.39;100.00;99461.88;5101832;28;20027;-94
2023/10/26 06:52:13;;;;;;;65.53;14.05;;;;;;;7.48;100.00;99465.88;5100020;28;20055;-95
2023/10/26 06:54:44;;;;;;;144.38;15.65;;;;;;;7.57;100.00;99457.47;5106400;28;20483;-95
2023/10/26 06:57:34;;;;;;;180.20;16.40;;;;;;;7.58;100.00;99462.63;5110315;28;20066;-94
2023/10/26 07:00:06;;;;;;;140.30;15.23;;;;;;;7.56;100.00;99459.38;5087501;28;20032;-95
2023/10/26 07:02:52;;;;;;;117.57;14.85;;;;;;;7.58;100.00;99464.53;5110873;28;20031;-95
2023/10/26 07:05:18;;;;;;;129.25;14.60;;;;;;;7.58;100.00;99461.84;5114625;28;20395;-95
2023/10/26 07:07:46;;;;;;;57.13;13.52;;;;;;;7.69;100.00;99450.22;5110843;28;20076;-95
2023/10/26 07:10:18;;;;;;;61.90;13.70;;;;;;;7.80;100.00;99446.75;5114470;28;20058;-94
2023/10/26 07:12:46;;;;;;;83.47;14.80;;;;;;;7.89;100.00;99449.94;5114657;28;20035;-95
2023/10/26 07:15:12;;;;;;;104.95;15.15;;;;;;;7.93;100.00;99453.81;5093841;28;20036;-95
2023/10/26 07:17:41;;;;;;;87.80;13.85;;;;;;;7.97;100.00;99460.41;5094015;28;20030;-96
2023/10/26 07:20:12;;;;;;;107.77;14.70;;;;;;;8.00;100.00;99459.09;5094102;28;20024;-96
2023/10/26 07:22:39;;;;;;;71.80;14.57;;;;;;;8.04;100.00;99466.50;5094101;28;20077;-96
2023/10/26 07:25:16;;;;;;;109.47;14.02;;;;;;;8.01;100.00;99458.88;5091620;28;20039;-95
2023/10/26 07:27:42;;;;;;;68.68;13.65;;;;;;;8.06;100.00;99459.00;5088399;28;20078;-96
2023/10/26 07:30:26;;;;;;;;;;;;;;;;;;;;;
2023/10/26 07:33:10;;;;;;;71.75;12.85;;;;;;;8.19;100.00;99471.47;5080916;28;20389;-96
2023/10/26 07:38:24;;;;;;;;;;;;;;;;;;;;;
2023/10/26 07:41:07;;;;;;;;;;;;;;;;;;;;;
2023/10/26 07:43:48;;;;;;;61.83;11.70;;;;;;;8.33;100.00;99461.25;5065362;28;20028;-96
2023/10/26 07:46:27;;;;;;;44.08;12.18;;;;;;;8.46;100.00;99462.94;5037844;28;20127;-95
2023/10/26 07:49:04;;;;;;;65.07;12.43;;;;;;;8.56;100.00;99467.75;5040653;28;20032;-96
2023/10/26 08:03:00;;;;;;;74.57;12.93;;;;;;;8.66;100.00;99483.38;5524801;22;20073;-96
2023/10/26 08:09:14;;;;;;;29.30;12.05;;;;;;;8.85;100.00;99487.59;5029155;28;20032;-96
2023/10/26 08:15:27;;;;;;;33.40;11.48;;;;;;;9.15;100.00;99488.47;5026103;28;21527;-96
2023/10/26 08:18:33;;;;;;;;;;;;;;;;;;;;;
2023/10/26 08:21:21;;;;;;;;;;;;;;;;;;;;;
2023/10/26 08:24:04;;;;;;;31.13;12.40;;;;;;;9.41;100.00;99493.34;5034607;28;20045;-96
2023/10/26 08:27:19;;;;;;;22.27;12.07;;;;;;;9.52;100.00;99494.34;5043527;28;20025;-96
2023/10/26 08:33:17;;;;;;;;;;;;;;;;;;;;;
2023/10/26 08:36:22;;;;;;;25.25;12.35;;;;;;;9.77;100.00;99488.59;5037865;28;20032;-96
2023/10/26 08:39:44;;;;;;;29.95;12.73;;;;;;;9.80;100.00;99477.28;5027466;28;20033;-96
2023/10/26 08:42:01;;;;;;;25.87;12.37;;;;;;;9.86;100.00;99488.19;5018605;28;20397;-96
2023/10/26 08:44:29;;;;;;;25.65;12.68;;;;;;;9.95;100.00;99489.44;5033868;28;20174;-96
2023/10/26 08:47:24;;;;;;;24.33;13.18;;;;;;;10.17;100.00;99489.53;5043990;28;20025;-96
2023/10/26 08:50:13;;;;;;;23.67;13.05;;;;;;;10.41;100.00;99482.09;5031602;28;20393;-96
2023/10/26 08:52:41;;;;;;;25.75;13.35;;;;;;;10.69;100.00;99483.06;4999476;28;20041;-95
2023/10/26 08:55:24;;;;;;;24.60;13.47;;;;;;;10.94;100.00;99490.72;5037956;28;20457;-96
2023/10/26 08:58:27;;;;;;;23.65;12.52;;;;;;;11.07;100.00;99489.50;4994196;28;20481;-95
2023/10/26 09:00:58;;;;;;;20.60;12.52;;;;;;;11.05;100.00;99484.34;5020190;28;20489;-96
2023/10/26 09:03:36;;;;;;;23.17;13.27;;;;;;;11.15;100.00;99489.09;5051887;28;20060;-95
2023/10/26 09:06:11;;;;;;;22.73;12.68;;;;;;;11.22;100.00;99480.75;5020791;28;20049;-96
2023/10/26 09:08:37;;;;;;;20.50;12.43;;;;;;;11.24;100.00;99484.03;5037850;28;20124;-96
2023/10/26 09:11:25;;;;;;;25.70;13.57;;;;;;;11.31;100.00;99487.38;5021205;28;20029;-96
2023/10/26 09:14:11;;;;;;;24.48;13.80;;;;;;;11.38;100.00;99489.88;5024858;28;20115;-96
2023/10/26 09:16:54;;;;;;;;;;;;;;;;;;;;;
2023/10/26 09:19:36;;;;;;;25.52;14.63;;;;;;;11.60;100.00;99476.28;5058184;28;20120;-96
2023/10/26 09:25:25;;;;;;;23.58;13.55;;;;;;;11.89;100.00;99481.47;5038730;28;20041;-96
2023/10/26 09:28:04;;;;;;;24.33;13.68;;;;;;;11.99;100.00;99478.88;5043676;28;20039;-96
2023/10/26 09:30:42;;;;;;;22.25;13.38;;;;;;;12.02;100.00;99477.56;5035806;28;20029;-96
2023/10/26 09:33:24;;;;;;;23.50;12.93;;;;;;;12.05;100.00;99479.75;5022862;28;20049;-95
2023/10/26 09:35:50;;;;;;;23.77;13.95;;;;;;;12.00;100.00;99485.97;5055801;28;20040;-95
2023/10/26 09:42:05;;;;;;;;;;;;;;;;;;;;;
2023/10/26 09:45:01;;;;;;;24.05;14.43;;;;;;;11.84;100.00;99478.69;5035317;28;20035;-94
2023/10/26 09:48:05;;;;;;;23.77;14.02;;;;;;;11.89;100.00;99474.13;5051669;28;20076;-95
2023/10/26 09:50:48;;;;;;;;;;;;;;;;;;;;;
2023/10/26 09:53:32;;;;;;;25.67;14.40;;;;;;;11.98;100.00;99468.25;5054970;28;20047;-92
2023/10/26 09:56:21;;;;;;;23.70;14.48;;;;;;;12.03;100.00;99460.97;5031222;28;20045;-93
2023/10/26 09:59:00;;;;;;;23.05;14.02;;;;;;;11.98;100.00;99458.19;5009187;28;20033;-93
2023/10/26 10:01:41;;;;;;;22.77;14.03;;;;;;;11.95;100.00;99458.72;5037955;28;20041;-94
2023/10/26 10:04:13;;;;;;;23.60;13.82;;;;;;;11.89;100.00;99454.28;5054812;28;20036;-93
2023/10/26 10:07:02;;;;;;;24.60;13.68;;;;;;;11.89;100.00;99460.53;5040779;28;20123;-93
2023/10/26 10:09:34;;;;;;;23.38;13.60;;;;;;;11.89;100.00;99454.28;5046225;28;20028;-93
2023/10/26 10:12:05;;;;;;;22.42;13.18;;;;;;;11.95;100.00;99450.56;5042660;28;20024;-93
2023/10/26 10:14:57;;;;;;;21.27;12.40;;;;;;;11.98;100.00;99443.81;5032838;28;20057;-95
2023/10/26 10:17:49;;;;;;;21.63;13.10;;;;;;;11.94;100.00;99446.19;5050809;28;20535;-92
2023/10/26 10:20:14;;;;;;;21.77;13.57;;;;;;;11.91;100.00;99447.53;5054845;28;20063;-92
2023/10/26 10:22:40;;;;;;;23.23;13.43;;;;;;;11.94;100.00;99446.19;5072933;28;20068;-92
2023/10/26 10:25:24;;;;;;;21.88;13.20;;;;;;;12.00;100.00;99436.19;5048558;28;20025;-92
2023/10/26 10:27:49;;;;;;;21.10;12.55;;;;;;;12.03;100.00;99427.53;5037531;28;20120;-93
2023/10/26 10:30:21;;;;;;;17.30;11.67;;;;;;;12.03;100.00;99422.09;5045708;28;20126;-93
2023/10/26 10:32:52;;;;;;;18.48;12.15;;;;;;;12.05;100.00;99411.78;5037135;28;20056;-92
2023/10/26 10:35:23;;;;;;;19.33;12.13;;;;;;;12.11;100.00;99421.63;5040462;28;20024;-95
2023/10/26 10:38:24;;;;;;;20.48;12.52;;;;;;;12.24;100.00;99425.78;5036653;28;20037;-93
2023/10/26 10:41:01;;;;;;;17.52;11.35;;;;;;;12.10;100.00;99431.66;5008559;28;20048;-93
2023/10/26 10:43:43;;;;;;;18.85;12.30;;;;;;;12.08;100.00;99425.66;5048151;28;20036;-93
2023/10/26 10:46:12;;;;;;;18.45;11.82;;;;;;;12.15;100.00;99420.03;5037987;28;20426;-93
2023/10/26 10:48:53;;;;;;;18.80;12.27;;;;;;;12.31;100.00;99414.66;5050217;28;20429;-93
2023/10/26 10:51:31;;;;;;;19.83;12.00;;;;;;;12.39;100.00;99415.00;5025360;28;20025;-93
2023/10/26 10:54:05;;;;;;;18.77;10.93;;;;;;;12.61;100.00;99411.34;5037353;28;20025;-93
2023/10/26 10:56:41;;;;;;;15.43;10.90;;;;;;;12.76;100.00;99395.06;5048841;28;20464;-92
2023/10/26 10:59:30;;;;;;;15.98;10.55;;;;;;;13.10;100.00;99402.00;5051521;28;20047;-93
2023/10/26 11:02:11;;;;;;;13.40;9.30;;;;;;;13.21;100.00;99398.22;5037498;28;20111;-93
2023/10/26 11:04:53;;;;;;;16.90;10.68;;;;;;;13.22;100.00;99399.03;5017245;28;20496;-93
2023/10/26 11:07:26;;;;;;;15.68;10.35;;;;;;;13.15;100.00;99394.69;5032857;28;20493;-93
2023/10/26 11:09:56;;;;;;;14.02;9.82;;;;;;;13.13;100.00;99402.28;5033514;28;20474;-93
2023/10/26 11:12:37;;;;;;;14.18;9.88;;;;;;;13.07;100.00;99395.19;5025713;28;20024;-93
2023/10/26 11:15:10;;;;;;;15.27;10.23;;;;;;;13.08;100.00;99399.56;5021403;28;20048;-93
2023/10/26 11:17:39;;;;;;;15.57;10.40;;;;;;;13.18;100.00;99404.19;5035135;28;20037;-93
2023/10/26 11:20:28;;;;;;;15.05;10.77;;;;;;;13.65;100.00;99392.31;5034315;28;20028;-94
2023/10/26 11:22:58;;;;;;;16.15;10.52;;;;;;;15.09;100.00;99388.53;5034586;28;20029;-94
2023/10/26 11:29:00;;;;;;;12.97;9.17;;;;;;;21.41;88.10;99385.88;4936863;28;20037;-95
2023/10/26 11:31:48;;;;;;;12.13;8.90;;;;;;;23.69;84.37;99378.38;5017971;28;20027;-96
2023/10/26 11:34:17;;;;;;;11.65;9.00;;;;;;;23.70;66.67;99374.47;5033018;28;20120;-94
2023/10/26 11:36:57;;;;;;;11.15;8.65;;;;;;;23.08;74.04;99382.38;5016562;28;20432;-94
2023/10/26 11:39:45;;;;;;;12.27;8.93;;;;;;;22.28;76.58;99380.31;5018239;28;20026;-94
2023/10/26 11:42:14;;;;;;;13.13;8.63;;;;;;;21.65;70.73;99377.16;5033659;28;20124;-94
2023/10/26 11:44:55;;;;;;;9.88;8.50;;;;;;;21.49;69.42;99387.84;5021087;28;20036;-94
2023/10/26 11:47:23;;;;;;;9.75;8.43;;;;;;;21.17;68.82;99382.47;5031495;28;20033;-94
2023/10/26 11:49:54;;;;;;;12.55;8.30;;;;;;;21.01;68.07;99376.59;5034615;28;20155;-94
2023/10/26 11:52:40;;;;;;;9.05;8.15;;;;;;;21.14;67.62;99374.84;5021437;28;20021;-94
2023/10/26 11:58:03;;;;;;;9.65;8.10;;;;;;;21.35;66.17;99366.75;5037840;28;20043;-94
2023/10/26 12:00:43;;;;;;;10.18;8.32;;;;;;;21.36;67.95;99375.81;5014425;28;20048;-94
2023/10/26 12:03:29;;;;;;;8.98;8.02;;;;;;;21.05;65.47;99374.00;5013628;28;20053;-92
2023/10/26 12:06:09;;;;;;;9.27;8.05;;;;;;;20.62;66.47;99374.66;5041894;28;20040;-93
2023/10/26 12:08:37;;;;;;;10.33;8.27;;;;;;;19.95;69.76;99371.75;5031042;28;20043;-93
2023/10/26 12:11:04;;;;;;;9.45;8.02;;;;;;;19.55;69.57;99376.28;5048704;28;20029;-94
2023/10/26 12:13:48;;;;;;;;;;;;;;;;;;;;;
2023/10/26 12:16:14;;;;;;;10.05;8.60;;;;;;;18.95;72.03;99380.91;5058929;28;20021;-93
2023/10/26 12:18:43;;;;;;;11.32;8.98;;;;;;;18.85;74.32;99365.44;5058273;28;20031;-93
2023/10/26 12:21:08;;;;;;;11.33;8.80;;;;;;;18.97;73.14;99356.69;5035405;28;20048;-93
2023/10/26 12:23:55;;;;;;;11.10;9.02;;;;;;;18.86;73.31;99356.06;5038263;28;20068;-94
2023/10/26 12:26:28;;;;;;;12.60;8.73;;;;;;;18.74;75.60;99351.06;5070464;28;20547;-93
2023/10/26 12:28:53;;;;;;;11.83;8.97;;;;;;;18.58;73.42;99347.81;5038057;28;20108;-93
2023/10/26 12:31:21;;;;;;;14.10;9.05;;;;;;;18.26;74.19;99356.16;5035650;28;20108;-94
2023/10/26 12:33:49;;;;;;;12.87;9.77;;;;;;;17.93;76.59;99359.72;5035741;28;20056;-93
2023/10/26 12:36:23;;;;;;;14.15;9.95;;;;;;;17.51;78.84;99359.56;5035843;28;20032;-93
2023/10/26 12:38:58;;;;;;;13.35;10.38;;;;;;;17.25;79.71;99361.88;5023185;28;20463;-94
2023/10/26 12:41:36;;;;;;;;;;;;;;;;;;;;;
2023/10/26 12:44:02;;;;;;;12.90;10.23;;;;;;;17.60;78.74;99350.66;5036535;28;20033;-93
2023/10/26 12:46:40;;;;;;;11.90;9.63;;;;;;;17.49;78.23;99348.09;5053730;28;20113;-93
2023/10/26 12:49:08;;;;;;;12.85;10.07;;;;;;;17.06;79.65;99355.56;5019291;28;20021;-94
2023/10/26 12:51:37;;;;;;;13.43;9.73;;;;;;;16.87;79.06;99352.78;5029320;28;20033;-94
2023/10/26 12:54:15;;;;;;;;;;;;;;;;;;;;;